Pagina principale
METAR-TAF:

METAR-TAF

Aeroporti :

Aeroporto di Cuneo-Levaldigi

Cuneo, Italia

latitudine: 44-32-47N, longitudine: 007-37-20E, altezza: 386 m

Osservazione

Il bollettino è stato emesso 1 ora e 16 minuti fa, alle 14:50 UTC
Vento 3 kt da sud-ovest
Temperature 24°C
Umidità 47%
Pressione 1019 hPa
Visibilità 10 km o più
Poco nuvoloso ad un'altezza di 2500 ft

METAR: LIMZ 231450Z 23003KT 9999 FEW025 24/12 Q1019

Ora: 18:06 (16:06 UTC)

Previsione

Il bollettino è stato emesso 5 ore e 6 minuti fa, alle 11:00 UTC
Previsione valida dal 23 alle 12 UTC al 24 alle 12 UTC
Vento 5 kt da direzioni variabili
Visibilità 10 km o più
Nubi sparse ad un'altezza di 5000 ft
Probabilità 40% :
Temporaneamente
dal 24 alle 09 UTC al 24 alle 12 UTC
temporale, pioggia

TAF: LIMZ 231100Z 2312/2412 VRB05KT 9999 SCT050 PROB40 TEMPO 2409/2412 TSRA

Osservazioni e previsioni meteorologiche di più di 4000 aeroporti (messaggi METAR e TAF).

Le stazioni disponibili sono rappresentate dai dischi gialli e rossi sulla carta.

Puntare il mouse per vedere il nome della stazione.

Clicca sopra per visualizzare le osservazioni e previsioni meteorologiche.

Per cambiare la mappa : fare clic sui pulsanti verdi con una croce nera per ingrandire, il pulsante verde con un trattino per diminuire, o sulla freccia verde per le mappe adiacenti.


METAR-TAF: